createdAt,value
2023-04-22T00:00:17.203Z,7.50
2023-04-22T00:02:45.812Z,7.50
2023-04-22T00:05:17.024Z,7.20
2023-04-22T00:07:48.755Z,7.73
2023-04-22T00:10:16.680Z,7.73
2023-04-22T00:12:44.639Z,6.87
2023-04-22T00:15:12.791Z,6.37
2023-04-22T00:17:42.771Z,8.98
2023-04-22T00:20:12.526Z,9.10
2023-04-22T00:22:40.540Z,8.88
2023-04-22T00:25:10.424Z,7.93
2023-04-22T00:27:38.278Z,7.93
2023-04-22T00:30:07.275Z,7.20
2023-04-22T00:32:35.242Z,7.10
2023-04-22T00:35:03.252Z,7.10
2023-04-22T00:37:31.226Z,7.20
2023-04-22T00:39:59.149Z,8.00
2023-04-22T00:42:29.025Z,7.27
2023-04-22T00:44:57.725Z,6.73
2023-04-22T00:47:27.041Z,6.90
2023-04-22T00:49:55.863Z,6.30
2023-04-22T00:52:24.246Z,7.60
2023-04-22T00:54:52.860Z,6.33
2023-04-22T00:57:21.143Z,7.30
2023-04-22T00:59:50.942Z,7.47
2023-04-22T01:02:19.306Z,7.30
2023-04-22T01:04:47.984Z,7.07
2023-04-22T01:07:15.861Z,8.07
2023-04-22T01:09:44.252Z,8.53
2023-04-22T01:12:12.195Z,8.10
2023-04-22T01:14:40.563Z,11.00
2023-04-22T01:17:11.996Z,9.07
2023-04-22T01:19:41.243Z,10.90
2023-04-22T01:22:11.518Z,10.43
2023-04-22T01:24:41.081Z,10.13
2023-04-22T01:27:09.624Z,12.17
2023-04-22T01:29:39.059Z,10.27
2023-04-22T01:32:07.601Z,9.70
2023-04-22T01:34:35.673Z,12.23
2023-04-22T01:37:03.776Z,9.73
2023-04-22T01:39:31.844Z,9.63
2023-04-22T01:42:02.092Z,9.83
2023-04-22T01:44:30.175Z,12.40
2023-04-22T01:46:58.109Z,10.53
2023-04-22T01:49:26.015Z,9.57
2023-04-22T01:51:53.884Z,10.03
2023-04-22T01:54:22.023Z,9.60
2023-04-22T01:56:52.681Z,11.33
2023-04-22T01:59:22.480Z,10.23
2023-04-22T02:01:51.451Z,9.67
2023-04-22T02:04:20.055Z,10.63
2023-04-22T02:06:47.921Z,8.70
2023-04-22T02:09:15.771Z,9.23
2023-04-22T02:11:43.759Z,8.07
2023-04-22T02:14:11.690Z,10.13
2023-04-22T02:16:41.916Z,10.37
2023-04-22T02:19:10.085Z,10.13
2023-04-22T02:21:38.360Z,9.47
2023-04-22T02:24:06.654Z,8.47
2023-04-22T02:26:34.609Z,8.40
2023-04-22T02:29:02.648Z,9.80
2023-04-22T02:31:31.136Z,9.10
2023-04-22T02:34:00.545Z,11.27
2023-04-22T02:36:28.835Z,10.30
2023-04-22T02:38:56.991Z,9.50
2023-04-22T02:41:25.189Z,10.73
2023-04-22T02:43:53.226Z,11.20
2023-04-22T02:46:21.087Z,11.10
2023-04-22T02:48:49.569Z,12.70
2023-04-22T02:51:19.816Z,15.32
2023-04-22T02:53:47.757Z,13.95
2023-04-22T02:56:16.005Z,13.82
2023-04-22T02:58:43.888Z,12.05
2023-04-22T03:01:12.308Z,16.10
2023-04-22T03:03:40.840Z,12.80
2023-04-22T03:06:11.407Z,15.10
2023-04-22T03:08:40.643Z,15.73
2023-04-22T03:11:08.582Z,13.43
2023-04-22T03:13:36.415Z,12.20
2023-04-22T03:16:04.381Z,12.18
2023-04-22T03:18:32.736Z,12.15
2023-04-22T03:21:01.229Z,13.02
2023-04-22T03:23:29.130Z,15.40
2023-04-22T03:25:58.324Z,15.85
2023-04-22T03:28:26.269Z,15.68
2023-04-22T03:30:55.165Z,18.27
2023-04-22T03:33:23.399Z,12.93
2023-04-22T03:35:56.606Z,12.15
2023-04-22T03:38:25.224Z,13.60
2023-04-22T03:40:53.097Z,14.30
2023-04-22T03:43:44.053Z,12.63
2023-04-22T03:46:12.716Z,15.15
2023-04-22T03:48:44.813Z,14.73
2023-04-22T03:51:22.441Z,15.52
2023-04-22T03:53:51.173Z,15.68
2023-04-22T03:56:22.167Z,19.67
2023-04-22T03:58:52.068Z,18.00
2023-04-22T04:01:20.043Z,19.75
2023-04-22T04:03:51.988Z,15.52
2023-04-22T04:06:21.719Z,14.93
2023-04-22T04:08:49.668Z,12.75
2023-04-22T04:11:17.738Z,18.67
2023-04-22T04:13:45.890Z,16.02
2023-04-22T04:16:20.764Z,14.23
2023-04-22T04:18:54.793Z,13.43
2023-04-22T04:21:24.592Z,15.70
2023-04-22T04:23:53.801Z,13.27
2023-04-22T04:26:27.507Z,12.50
2023-04-22T04:29:02.058Z,13.75
2023-04-22T04:31:31.404Z,14.25
2023-04-22T04:34:00.812Z,17.35
2023-04-22T04:36:29.919Z,14.97
2023-04-22T04:39:09.420Z,13.60
2023-04-22T04:41:38.700Z,11.93
2023-04-22T04:44:07.815Z,14.60
2023-04-22T04:46:40.524Z,18.48
2023-04-22T04:49:12.492Z,15.70
2023-04-22T04:51:49.898Z,14.00
2023-04-22T04:54:18.062Z,12.38
2023-04-22T04:56:46.404Z,18.92
2023-04-22T04:59:15.140Z,17.93
2023-04-22T05:01:45.054Z,20.70
2023-04-22T05:04:14.373Z,19.27
2023-04-22T05:06:44.486Z,17.48
2023-04-22T05:09:14.434Z,17.83
2023-04-22T05:11:43.876Z,19.08
2023-04-22T05:14:19.656Z,18.67
2023-04-22T05:16:49.767Z,20.83
2023-04-22T05:19:18.074Z,11.53
2023-04-22T05:21:47.800Z,14.67
2023-04-22T05:24:16.936Z,16.63
2023-04-22T05:26:45.049Z,13.40
2023-04-22T05:29:19.394Z,12.00
2023-04-22T05:31:48.917Z,12.33
2023-04-22T05:34:16.858Z,11.47
2023-04-22T05:36:44.825Z,12.50
2023-04-22T05:39:13.794Z,12.10
2023-04-22T05:41:42.098Z,12.50
2023-04-22T05:44:11.931Z,13.93
2023-04-22T05:46:40.743Z,12.27
2023-04-22T05:49:10.175Z,13.77
2023-04-22T05:52:16.640Z,12.20
2023-04-22T05:54:56.581Z,13.37
2023-04-22T05:57:24.612Z,12.87
2023-04-22T05:59:52.687Z,13.77
2023-04-22T06:02:20.854Z,11.97
2023-04-22T06:04:50.421Z,14.33
2023-04-22T06:07:18.611Z,12.60
2023-04-22T06:09:46.527Z,13.00
2023-04-22T06:12:16.087Z,11.57
2023-04-22T06:14:43.950Z,11.17
2023-04-22T06:17:11.840Z,11.93
2023-04-22T06:19:40.016Z,13.43
2023-04-22T06:22:09.469Z,13.07
2023-04-22T06:24:37.261Z,13.63
2023-04-22T06:27:05.217Z,13.63
2023-04-22T06:29:33.189Z,13.93
2023-04-22T06:32:01.111Z,13.00
2023-04-22T06:34:29.151Z,12.07
2023-04-22T06:36:57.118Z,11.97
2023-04-22T06:39:26.535Z,12.83
2023-04-22T06:42:06.963Z,12.80
2023-04-22T06:45:12.780Z,12.23
2023-04-22T06:47:53.981Z,12.13
2023-04-22T06:50:32.198Z,14.00
2023-04-22T06:53:00.747Z,12.00
2023-04-22T06:55:30.142Z,11.67
2023-04-22T06:57:58.228Z,12.73
2023-04-22T07:00:28.089Z,12.67
2023-04-22T07:02:56.159Z,12.90
2023-04-22T07:05:24.173Z,15.03
2023-04-22T07:07:52.132Z,12.30
2023-04-22T07:10:22.536Z,11.97
2023-04-22T07:13:11.860Z,13.03
2023-04-22T07:15:39.788Z,13.77
2023-04-22T07:18:07.829Z,11.23
2023-04-22T07:20:35.680Z,12.60
2023-04-22T07:23:03.562Z,11.57
2023-04-22T07:25:31.471Z,12.17
2023-04-22T07:27:59.403Z,13.52
2023-04-22T07:30:28.887Z,12.13
2023-04-22T07:32:56.811Z,11.17
2023-04-22T07:35:24.684Z,10.73
2023-04-22T07:37:52.573Z,10.77
2023-04-22T07:40:20.613Z,10.77
2023-04-22T07:42:48.511Z,10.83
2023-04-22T07:45:16.516Z,10.00
2023-04-22T07:47:45.807Z,10.93
2023-04-22T07:50:13.803Z,10.23
2023-04-22T07:52:41.671Z,12.05
2023-04-22T07:55:10.034Z,10.90
2023-04-22T07:57:38.973Z,11.30
